Time;durP1;ratioP1;P1;durP2;ratioP2;P2;SDS_P1;SDS_P2;PMS_P1;PMS_P2;Temp;Humidity;BMP_temperature;BMP_pressure;BME280_temperature;BME280_humidity;BME280_pressure;Samples;Min_cycle;Max_cycle;Signal;HPM_P1;HPM_P2
2024/01/24 00:01:52;;;;;;;6.45;3.15;;;15.00;78.10;;;;;;5069019;28;20069;-55
2024/01/24 00:04:22;;;;;;;7.60;2.35;;;15.00;78.20;;;;;;5060141;28;20044;-55
2024/01/24 00:06:52;;;;;;;6.22;2.55;;;15.00;78.10;;;;;;5071580;28;20047;-55
2024/01/24 00:09:21;;;;;;;7.45;2.70;;;15.10;78.30;;;;;;5068705;28;20045;-52
2024/01/24 00:11:48;;;;;;;4.68;2.38;;;15.10;78.30;;;;;;5054963;28;20045;-56
2024/01/24 00:14:14;;;;;;;8.10;3.15;;;15.10;78.30;;;;;;5071742;28;20063;-54
2024/01/24 00:16:43;;;;;;;6.75;2.40;;;15.10;78.20;;;;;;5070581;28;20056;-55
2024/01/24 00:19:11;;;;;;;6.40;2.20;;;15.20;78.30;;;;;;5061476;28;20058;-52
2024/01/24 00:21:38;;;;;;;4.85;1.88;;;15.20;78.20;;;;;;5068078;28;20120;-54
2024/01/24 00:24:05;;;;;;;3.35;1.67;;;15.20;78.20;;;;;;5066792;28;20049;-55
2024/01/24 00:26:33;;;;;;;4.75;2.95;;;15.20;78.20;;;;;;5065466;28;20052;-54
2024/01/24 00:29:02;;;;;;;5.18;2.03;;;15.30;78.10;;;;;;5057680;28;20526;-55
2024/01/24 00:31:36;;;;;;;5.47;2.03;;;15.30;78.10;;;;;;5068535;28;20559;-53
2024/01/24 00:34:08;;;;;;;3.25;2.00;;;15.30;78.00;;;;;;5059241;28;20071;-51
2024/01/24 00:36:43;;;;;;;3.25;2.00;;;15.30;77.90;;;;;;5065912;28;20120;-55
2024/01/24 00:39:10;;;;;;;;;;;15.40;77.90;;;;;;5064938;28;20466;-56
2024/01/24 00:41:44;;;;;;;2.88;1.77;;;15.40;77.80;;;;;;5063082;28;19921;-53
2024/01/24 00:44:18;;;;;;;3.97;1.80;;;15.50;77.50;;;;;;5071273;28;20064;-53
2024/01/24 00:46:48;;;;;;;2.60;1.77;;;15.50;77.30;;;;;;5070208;28;20052;-55
2024/01/24 00:49:17;;;;;;;3.85;1.90;;;15.50;77.30;;;;;;5061855;28;20052;-55
2024/01/24 00:51:48;;;;;;;3.35;1.58;;;15.50;77.20;;;;;;5070358;28;20391;-53
2024/01/24 00:54:15;;;;;;;2.27;1.27;;;15.60;77.20;;;;;;5068224;28;20052;-53
2024/01/24 00:56:42;;;;;;;2.30;1.30;;;15.60;77.20;;;;;;5063588;28;20141;-53
2024/01/24 00:59:11;;;;;;;5.18;1.85;;;15.60;76.90;;;;;;5060191;28;20081;-53
2024/01/24 01:01:39;;;;;;;3.67;1.52;;;15.60;76.70;;;;;;5064345;28;20040;-55
2024/01/24 01:04:08;;;;;;;2.20;1.17;;;15.70;76.70;;;;;;5059320;28;20041;-56
2024/01/24 01:06:38;;;;;;;2.67;1.17;;;15.70;77.20;;;;;;5070446;28;20502;-53
2024/01/24 01:09:05;;;;;;;5.13;1.60;;;15.70;76.40;;;;;;5069850;28;20045;-52
2024/01/24 01:11:38;;;;;;;;;;;15.70;76.20;;;;;;5055712;28;20118;-55
2024/01/24 01:14:07;;;;;;;2.58;1.20;;;15.80;76.40;;;;;;5068517;28;19959;-52
2024/01/24 01:16:35;;;;;;;2.20;1.00;;;15.80;76.60;;;;;;5069313;28;20246;-55
2024/01/24 01:19:07;;;;;;;1.95;1.17;;;15.80;75.80;;;;;;5066297;28;20609;-53
2024/01/24 01:21:42;;;;;;;3.75;1.40;;;15.90;75.70;;;;;;5065433;28;20482;-55
2024/01/24 01:24:12;;;;;;;2.13;1.10;;;15.90;75.70;;;;;;5064241;28;20140;-56
2024/01/24 01:26:39;;;;;;;2.50;1.30;;;15.90;75.60;;;;;;5061186;28;20041;-53
2024/01/24 01:29:12;;;;;;;3.53;1.73;;;15.90;75.40;;;;;;5052371;28;20075;-54
2024/01/24 01:31:43;;;;;;;1.55;0.82;;;15.90;75.40;;;;;;5065790;28;20040;-56
2024/01/24 01:34:10;;;;;;;1.88;1.10;;;16.00;75.30;;;;;;5060171;28;20040;-56
2024/01/24 01:36:36;;;;;;;2.70;1.38;;;16.00;75.20;;;;;;5064769;28;20043;-55
2024/01/24 01:39:07;;;;;;;1.55;1.02;;;16.00;75.00;;;;;;5069643;28;20036;-56
2024/01/24 01:41:36;;;;;;;2.58;1.23;;;16.00;75.00;;;;;;5061886;28;20064;-55
2024/01/24 01:44:11;;;;;;;5.15;1.88;;;16.00;74.90;;;;;;5068813;28;20116;-53
2024/01/24 01:46:39;;;;;;;;;;;16.10;74.80;;;;;;5065298;28;20115;-53
2024/01/24 01:49:12;;;;;;;4.03;1.50;;;16.20;74.90;;;;;;5069152;28;19966;-52
2024/01/24 01:51:45;;;;;;;1.38;1.02;;;16.20;74.50;;;;;;5058977;28;20122;-53
2024/01/24 01:54:16;;;;;;;3.92;1.13;;;16.20;75.10;;;;;;5050360;28;20076;-52
2024/01/24 01:56:42;;;;;;;1.75;1.00;;;16.20;74.30;;;;;;5060542;28;20047;-52
2024/01/24 01:59:09;;;;;;;2.55;0.95;;;16.20;74.30;;;;;;5061723;28;20069;-55
2024/01/24 02:01:47;;;;;;;1.45;0.70;;;16.20;74.30;;;;;;5062797;28;20051;-55
2024/01/24 02:04:18;;;;;;;1.40;0.80;;;16.20;74.10;;;;;;5058904;28;20036;-53
2024/01/24 02:06:45;;;;;;;0.73;0.70;;;16.20;74.20;;;;;;5069544;28;20128;-51
2024/01/24 02:09:17;;;;;;;1.27;0.57;;;16.20;74.30;;;;;;5065762;28;20093;-54
2024/01/24 02:11:46;;;;;;;3.60;1.02;;;16.20;74.20;;;;;;5054972;28;20532;-55
2024/01/24 02:14:15;;;;;;;1.73;0.73;;;16.20;74.10;;;;;;5068508;28;20048;-56
2024/01/24 02:16:44;;;;;;;1.75;0.80;;;16.20;74.10;;;;;;5067781;28;20602;-53
2024/01/24 02:19:11;;;;;;;1.73;0.77;;;16.30;74.10;;;;;;5052590;28;20059;-55
2024/01/24 02:21:39;;;;;;;1.33;0.70;;;16.20;74.10;;;;;;5062766;28;20086;-51
2024/01/24 02:24:11;;;;;;;1.33;0.80;;;16.20;74.10;;;;;;5059100;28;20107;-53
2024/01/24 02:26:40;;;;;;;1.33;0.90;;;16.20;74.10;;;;;;5060354;28;20033;-54
2024/01/24 02:29:11;;;;;;;1.90;0.85;;;16.20;74.10;;;;;;5064418;28;20115;-55
2024/01/24 02:31:38;;;;;;;1.70;0.70;;;16.20;74.20;;;;;;5066320;28;20044;-55
2024/01/24 02:34:10;;;;;;;1.42;0.75;;;16.20;74.30;;;;;;5062707;28;20086;-54
2024/01/24 02:36:47;;;;;;;0.95;0.85;;;16.10;74.40;;;;;;5068750;28;20043;-53
2024/01/24 02:39:14;;;;;;;0.77;0.70;;;16.10;74.80;;;;;;5065622;28;20559;-55
2024/01/24 02:41:47;;;;;;;1.60;0.65;;;16.10;75.20;;;;;;5058270;28;20040;-55
2024/01/24 02:44:18;;;;;;;2.55;1.45;;;16.00;75.70;;;;;;5066326;28;20529;-54
2024/01/24 02:46:52;;;;;;;0.75;0.75;;;15.90;75.80;;;;;;5068639;28;20537;-56
2024/01/24 02:49:26;;;;;;;1.20;1.13;;;15.80;76.10;;;;;;5060923;28;20120;-52
2024/01/24 02:51:56;;;;;;;1.20;0.65;;;15.70;76.50;;;;;;5068572;28;20048;-52
2024/01/24 02:54:24;;;;;;;0.90;0.55;;;15.70;77.00;;;;;;5063388;28;20684;-55
2024/01/24 02:56:54;;;;;;;0.80;0.80;;;15.60;77.20;;;;;;5061305;28;20048;-52
2024/01/24 02:59:21;;;;;;;1.35;0.60;;;15.60;77.50;;;;;;5057561;28;20056;-55
2024/01/24 03:01:50;;;;;;;0.55;0.55;;;15.50;77.90;;;;;;5060366;28;20041;-55
2024/01/24 03:04:26;;;;;;;0.90;0.90;;;15.50;78.20;;;;;;5062521;28;20494;-53
2024/01/24 03:06:55;;;;;;;2.05;0.73;;;15.40;78.50;;;;;;5068307;28;20048;-56
2024/01/24 03:09:22;;;;;;;0.80;0.55;;;15.40;78.90;;;;;;5068205;28;20127;-53
2024/01/24 03:11:51;;;;;;;0.60;0.57;;;15.30;79.00;;;;;;5058230;28;20442;-55
2024/01/24 03:14:18;;;;;;;2.33;0.50;;;15.30;79.40;;;;;;5068843;28;20510;-56
2024/01/24 03:16:46;;;;;;;0.75;0.47;;;15.30;79.60;;;;;;5048271;28;20045;-56
2024/01/24 03:19:15;;;;;;;0.90;0.60;;;15.20;79.70;;;;;;5053666;28;20091;-55
2024/01/24 03:21:43;;;;;;;0.70;0.70;;;15.20;79.90;;;;;;5057374;28;20068;-56
2024/01/24 03:24:09;;;;;;;1.10;0.70;;;15.20;80.20;;;;;;5059145;28;20124;-56
2024/01/24 03:26:41;;;;;;;1.00;0.57;;;15.20;80.30;;;;;;5060189;28;20033;-56
2024/01/24 03:29:11;;;;;;;2.05;0.40;;;15.20;80.40;;;;;;5063325;28;20056;-55
2024/01/24 03:31:43;;;;;;;0.60;0.60;;;15.10;80.50;;;;;;5063504;28;20497;-54
2024/01/24 03:34:12;;;;;;;0.60;0.50;;;15.20;80.90;;;;;;5066019;28;20555;-56
2024/01/24 03:36:42;;;;;;;0.50;0.50;;;15.10;81.10;;;;;;5071960;28;20054;-56
2024/01/24 03:39:13;;;;;;;0.63;0.63;;;15.10;81.10;;;;;;5071861;28;20071;-56
2024/01/24 03:41:43;;;;;;;1.33;0.60;;;15.10;81.50;;;;;;5048893;28;20061;-55
2024/01/24 03:44:09;;;;;;;0.50;0.50;;;15.10;81.50;;;;;;5071684;28;20115;-56
2024/01/24 03:46:40;;;;;;;0.50;0.50;;;15.10;81.70;;;;;;5070691;28;20037;-53
2024/01/24 03:49:07;;;;;;;0.32;0.30;;;15.10;82.00;;;;;;5069864;28;20473;-55
2024/01/24 03:51:37;;;;;;;2.83;0.52;;;15.10;82.10;;;;;;5068555;28;20639;-56
2024/01/24 03:54:04;;;;;;;1.48;0.50;;;15.00;82.10;;;;;;5071016;28;20041;-56
2024/01/24 03:56:34;;;;;;;0.50;0.40;;;15.00;82.40;;;;;;5064091;28;20098;-54
2024/01/24 03:59:02;;;;;;;2.08;0.95;;;15.00;82.40;;;;;;5060487;28;20044;-54
2024/01/24 04:01:29;;;;;;;0.30;0.30;;;15.00;82.50;;;;;;5063598;28;20041;-53
2024/01/24 04:03:58;;;;;;;6.10;1.02;;;15.00;82.70;;;;;;5063830;28;20445;-54
2024/01/24 04:06:27;;;;;;;0.40;0.40;;;15.00;82.70;;;;;;5070510;28;20116;-54
2024/01/24 04:08:56;;;;;;;1.02;0.28;;;15.00;82.80;;;;;;5071799;28;20495;-57
2024/01/24 04:11:25;;;;;;;0.55;0.40;;;15.00;82.90;;;;;;5064704;28;20056;-56
2024/01/24 04:13:53;;;;;;;0.57;0.43;;;15.00;83.10;;;;;;5064529;28;20040;-56
2024/01/24 04:16:24;;;;;;;1.17;0.63;;;15.00;83.30;;;;;;5068492;28;20132;-58
2024/01/24 04:18:53;;;;;;;1.83;0.73;;;15.00;83.60;;;;;;5055820;28;20051;-57
2024/01/24 04:21:20;;;;;;;0.68;0.30;;;15.00;83.50;;;;;;5059148;28;20471;-57
2024/01/24 04:23:53;;;;;;;;;;;15.00;83.20;;;;;;5063763;28;20120;-57
2024/01/24 04:26:27;;;;;;;0.55;0.30;;;15.00;83.90;;;;;;5063460;28;19966;-56
2024/01/24 04:29:00;;;;;;;0.70;0.40;;;14.90;82.50;;;;;;5039834;28;20036;-56
2024/01/24 04:31:29;;;;;;;1.52;0.50;;;14.90;82.40;;;;;;5062932;28;20446;-57
2024/01/24 04:33:58;;;;;;;0.68;0.32;;;14.80;82.30;;;;;;5068137;28;20055;-56
2024/01/24 04:36:30;;;;;;;1.90;0.40;;;14.80;82.30;;;;;;5070437;28;20063;-55
2024/01/24 04:38:59;;;;;;;1.02;0.40;;;14.80;82.30;;;;;;5070255;28;20047;-56
2024/01/24 04:41:26;;;;;;;2.58;0.50;;;14.80;82.30;;;;;;5063404;28;20127;-56
2024/01/24 04:43:56;;;;;;;0.55;0.35;;;14.70;82.20;;;;;;5068676;28;20032;-56
2024/01/24 04:46:24;;;;;;;0.68;0.32;;;14.70;82.50;;;;;;5069929;28;20098;-55
2024/01/24 04:48:51;;;;;;;1.77;0.57;;;14.70;82.40;;;;;;5069950;28;20043;-53
2024/01/24 04:51:18;;;;;;;2.17;0.95;;;14.70;82.30;;;;;;5064624;28;20041;-56
2024/01/24 04:53:45;;;;;;;1.65;0.50;;;14.60;82.30;;;;;;5062977;28;20037;-52
2024/01/24 04:56:16;;;;;;;3.17;0.82;;;14.70;82.30;;;;;;5066340;28;20126;-53
2024/01/24 04:58:46;;;;;;;1.90;0.50;;;14.70;82.20;;;;;;5064782;28;20422;-56
2024/01/24 05:01:13;;;;;;;2.85;1.02;;;14.70;81.70;;;;;;5060111;28;20059;-56
2024/01/24 05:03:40;;;;;;;2.95;0.82;;;14.70;81.60;;;;;;5066272;28;20118;-56
2024/01/24 05:06:10;;;;;;;3.63;1.00;;;14.70;80.90;;;;;;5069321;28;20091;-56
2024/01/24 05:08:38;;;;;;;4.20;1.05;;;14.70;80.70;;;;;;5067865;28;20055;-56
2024/01/24 05:11:05;;;;;;;3.70;0.88;;;14.70;80.20;;;;;;5048152;28;20055;-57
2024/01/24 05:13:36;;;;;;;3.22;0.90;;;14.70;79.90;;;;;;5070729;28;20048;-56
2024/01/24 05:16:03;;;;;;;5.45;1.42;;;14.70;79.80;;;;;;5068543;28;20571;-54
2024/01/24 05:18:31;;;;;;;2.63;1.00;;;14.70;79.60;;;;;;5060675;28;20045;-56
2024/01/24 05:21:00;;;;;;;3.75;1.30;;;14.80;79.30;;;;;;5053250;28;20052;-56
2024/01/24 05:23:26;;;;;;;5.63;1.80;;;14.70;78.80;;;;;;5057896;28;20055;-56
2024/01/24 05:25:55;;;;;;;7.03;1.85;;;14.80;78.00;;;;;;5062275;28;20040;-56
2024/01/24 05:28:22;;;;;;;6.15;1.45;;;14.80;77.90;;;;;;5068614;28;20072;-56
2024/01/24 05:30:49;;;;;;;10.98;2.33;;;14.80;77.20;;;;;;5066259;28;20033;-55
2024/01/24 05:33:15;;;;;;;11.80;2.00;;;14.80;76.30;;;;;;5043906;28;20110;-56
2024/01/24 05:35:45;;;;;;;8.55;2.40;;;14.80;75.90;;;;;;5064400;28;20447;-55
2024/01/24 05:38:12;;;;;;;9.25;2.30;;;14.80;75.30;;;;;;5044426;28;20123;-54
2024/01/24 05:40:39;;;;;;;10.15;2.88;;;14.80;75.00;;;;;;5065491;28;20048;-55
2024/01/24 05:43:05;;;;;;;8.25;2.10;;;14.80;74.50;;;;;;5065970;28;20040;-56
2024/01/24 05:45:32;;;;;;;7.40;2.45;;;14.80;74.80;;;;;;5066874;28;20044;-56
2024/01/24 05:47:59;;;;;;;22.33;3.97;;;14.80;74.50;;;;;;5059855;28;20494;-52
2024/01/24 05:50:26;;;;;;;8.13;2.78;;;14.80;73.60;;;;;;5066591;28;20098;-53
2024/01/24 05:52:53;;;;;;;4.40;1.58;;;14.80;73.40;;;;;;5063277;28;20109;-55
2024/01/24 05:55:20;;;;;;;9.00;1.92;;;14.80;73.20;;;;;;5064582;28;20135;-56
2024/01/24 05:57:49;;;;;;;5.65;1.52;;;14.80;73.20;;;;;;5059886;28;20047;-56
2024/01/24 06:00:16;;;;;;;7.90;2.25;;;14.80;73.00;;;;;;5057416;28;20056;-54
2024/01/24 06:02:44;;;;;;;7.95;2.33;;;14.90;72.80;;;;;;5066385;28;20138;-56
2024/01/24 06:05:11;;;;;;;6.75;2.05;;;14.90;72.40;;;;;;5063866;28;20077;-53
2024/01/24 06:07:39;;;;;;;7.20;1.90;;;14.90;72.40;;;;;;5066806;28;20052;-55
2024/01/24 06:10:06;;;;;;;7.13;2.80;;;14.90;72.20;;;;;;5066526;28;20106;-56
2024/01/24 06:12:33;;;;;;;8.45;2.10;;;15.00;72.10;;;;;;5065600;28;20040;-55
2024/01/24 06:15:01;;;;;;;7.55;2.72;;;15.00;71.80;;;;;;5063815;28;20482;-56
2024/01/24 06:17:28;;;;;;;11.98;2.78;;;15.00;71.60;;;;;;5062086;28;20049;-55
2024/01/24 06:19:54;;;;;;;10.88;2.58;;;15.00;71.10;;;;;;5054354;28;20044;-54
2024/01/24 06:22:21;;;;;;;13.82;3.30;;;15.00;71.00;;;;;;5054490;28;20256;-55
2024/01/24 06:24:48;;;;;;;8.30;2.95;;;15.00;70.70;;;;;;5054322;28;20045;-55
2024/01/24 06:27:15;;;;;;;16.13;3.63;;;15.00;70.40;;;;;;5066136;28;20041;-56
2024/01/24 06:29:41;;;;;;;14.70;3.45;;;15.00;70.10;;;;;;5055586;28;20051;-54
2024/01/24 06:32:28;;;;;;;13.32;3.90;;;15.00;69.80;;;;;;5059078;28;20052;-56
2024/01/24 06:34:55;;;;;;;14.80;4.72;;;15.00;69.60;;;;;;5064628;28;20129;-54
2024/01/24 06:37:22;;;;;;;16.92;3.63;;;15.00;69.40;;;;;;5064394;28;20052;-54
2024/01/24 06:39:50;;;;;;;11.15;3.45;;;14.90;69.20;;;;;;5060457;28;20052;-55
2024/01/24 06:42:17;;;;;;;14.73;5.15;;;15.00;69.20;;;;;;5055236;28;20146;-55
2024/01/24 06:44:44;;;;;;;16.10;4.00;;;14.90;69.20;;;;;;5063005;28;20047;-55
2024/01/24 06:47:11;;;;;;;14.57;4.75;;;14.90;68.90;;;;;;5064402;28;20418;-55
2024/01/24 06:49:38;;;;;;;11.90;3.92;;;14.90;68.80;;;;;;5064452;28;20052;-55
2024/01/24 06:52:06;;;;;;;11.45;3.40;;;14.90;68.80;;;;;;5060222;28;20045;-56
2024/01/24 06:54:36;;;;;;;9.48;3.72;;;14.90;68.80;;;;;;5062113;28;20094;-56
2024/01/24 06:57:03;;;;;;;11.10;3.72;;;14.90;68.70;;;;;;5063262;28;21446;-56
2024/01/24 06:59:31;;;;;;;18.75;3.83;;;14.80;68.70;;;;;;5060922;28;20046;-55
2024/01/24 07:02:00;;;;;;;15.07;3.90;;;14.90;68.70;;;;;;5065055;28;20090;-54
2024/01/24 07:04:27;;;;;;;16.92;4.55;;;14.80;68.30;;;;;;5064497;28;20461;-55
2024/01/24 07:06:54;;;;;;;15.75;4.60;;;14.90;68.30;;;;;;5064195;28;20033;-53
2024/01/24 07:09:21;;;;;;;15.60;4.05;;;14.80;68.10;;;;;;5070332;28;20155;-56
2024/01/24 07:11:48;;;;;;;18.02;4.82;;;14.80;68.20;;;;;;5070276;28;20052;-54
2024/01/24 07:14:15;;;;;;;22.13;5.40;;;14.80;68.00;;;;;;5066788;28;20113;-54
2024/01/24 07:16:46;;;;;;;13.35;5.25;;;14.80;67.90;;;;;;5064579;28;20058;-55
2024/01/24 07:19:13;;;;;;;16.15;3.88;;;14.80;68.60;;;;;;5058894;28;20045;-55
2024/01/24 07:21:40;;;;;;;22.70;4.93;;;14.80;67.80;;;;;;5061086;28;20060;-56
2024/01/24 07:24:07;;;;;;;17.58;5.13;;;14.80;67.50;;;;;;5057305;28;20119;-55
2024/01/24 07:26:34;;;;;;;22.17;5.78;;;14.80;67.30;;;;;;5066766;28;20130;-56
2024/01/24 07:29:01;;;;;;;17.55;4.60;;;14.80;67.20;;;;;;5069510;28;20060;-55
2024/01/24 07:31:28;;;;;;;14.38;5.22;;;14.80;67.10;;;;;;5070545;28;20052;-55
2024/01/24 07:33:55;;;;;;;17.05;5.00;;;14.80;67.00;;;;;;5069174;28;20119;-53
2024/01/24 07:36:22;;;;;;;15.90;4.65;;;14.80;67.00;;;;;;5072185;28;20498;-55
2024/01/24 07:38:49;;;;;;;20.92;4.82;;;14.80;66.90;;;;;;5071700;28;20040;-54
2024/01/24 07:41:16;;;;;;;17.75;4.68;;;14.80;66.60;;;;;;5066048;28;20044;-55
2024/01/24 07:43:42;;;;;;;15.27;5.03;;;14.80;66.50;;;;;;5067840;28;20115;-56
2024/01/24 07:46:11;;;;;;;18.10;4.50;;;14.80;66.70;;;;;;5069049;28;20040;-53
2024/01/24 07:48:38;;;;;;;17.48;4.00;;;14.80;66.60;;;;;;5065963;28;20502;-56
2024/01/24 07:51:05;;;;;;;13.13;5.40;;;14.80;66.70;;;;;;5071198;28;20064;-54
2024/01/24 07:53:36;;;;;;;12.77;4.45;;;14.80;66.70;;;;;;5070923;28;20090;-55
2024/01/24 07:56:03;;;;;;;22.88;6.05;;;14.80;66.80;;;;;;5057996;28;20049;-55
2024/01/24 07:58:47;;;;;;;18.40;5.43;;;14.80;66.70;;;;;;5055463;28;20045;-55
2024/01/24 08:01:17;;;;;;;23.48;5.82;;;14.80;66.80;;;;;;5061525;28;20134;-56
2024/01/24 08:03:44;;;;;;;18.40;5.22;;;14.80;66.80;;;;;;5068820;28;20051;-53
2024/01/24 08:06:14;;;;;;;19.67;5.03;;;14.80;66.70;;;;;;5064481;28;20040;-56
2024/01/24 08:08:41;;;;;;;22.38;4.97;;;14.80;66.30;;;;;;5068961;28;20041;-58
2024/01/24 08:11:07;;;;;;;18.75;6.60;;;14.70;66.00;;;;;;5069888;28;20123;-55
2024/01/24 08:13:34;;;;;;;18.77;5.53;;;14.80;66.00;;;;;;5066650;28;20040;-57
2024/01/24 08:16:02;;;;;;;21.48;5.97;;;14.70;65.80;;;;;;5064373;28;20051;-56
2024/01/24 08:18:29;;;;;;;20.60;5.15;;;14.70;65.70;;;;;;5062329;28;20155;-58
2024/01/24 08:20:56;;;;;;;18.88;4.80;;;14.70;65.30;;;;;;5057341;28;20049;-56
2024/01/24 08:23:22;;;;;;;22.33;6.22;;;14.70;64.90;;;;;;5063115;28;20037;-54
2024/01/24 08:26:04;;;;;;;16.33;5.72;;;14.70;64.50;;;;;;5066192;28;20072;-58
2024/01/24 08:28:30;;;;;;;22.58;5.90;;;14.70;64.30;;;;;;5071380;28;20525;-56
2024/01/24 08:30:57;;;;;;;18.10;6.00;;;14.70;64.00;;;;;;5066858;28;20037;-55
2024/01/24 08:33:26;;;;;;;19.77;5.75;;;14.70;63.50;;;;;;5065807;28;20055;-54
2024/01/24 08:35:53;;;;;;;23.85;7.63;;;14.60;63.00;;;;;;5068425;28;20136;-57
2024/01/24 08:38:19;;;;;;;19.83;5.50;;;14.70;63.10;;;;;;5068191;28;20506;-55
2024/01/24 08:40:46;;;;;;;15.63;5.40;;;14.70;63.20;;;;;;5068113;28;20139;-58
2024/01/24 08:43:13;;;;;;;17.40;6.25;;;14.60;62.80;;;;;;5061502;28;20060;-58
2024/01/24 08:45:39;;;;;;;18.42;5.75;;;14.60;62.40;;;;;;5060159;28;20060;-54
2024/01/24 08:48:07;;;;;;;18.40;4.65;;;14.60;62.00;;;;;;5055601;28;20224;-57
2024/01/24 08:50:33;;;;;;;16.77;4.63;;;14.60;62.20;;;;;;5058094;28;20460;-56
2024/01/24 08:53:00;;;;;;;27.25;5.78;;;14.60;62.40;;;;;;5059149;28;20078;-55
2024/01/24 08:55:27;;;;;;;19.08;4.60;;;14.60;62.50;;;;;;5057317;28;20114;-55
2024/01/24 08:57:54;;;;;;;19.10;5.22;;;14.70;62.00;;;;;;5064797;28;20502;-55
2024/01/24 09:00:21;;;;;;;20.15;5.80;;;14.70;61.90;;;;;;5065005;28;20045;-55
2024/01/24 09:02:49;;;;;;;16.35;5.07;;;14.70;61.90;;;;;;5060181;28;20450;-58
2024/01/24 09:05:19;;;;;;;15.40;5.28;;;14.70;61.90;;;;;;5058910;28;20512;-55
2024/01/24 09:07:46;;;;;;;19.13;5.40;;;14.70;61.90;;;;;;5057898;28;20075;-56
2024/01/24 09:10:13;;;;;;;20.98;6.30;;;14.70;61.70;;;;;;5064953;28;20054;-55
2024/01/24 09:12:40;;;;;;;15.93;4.70;;;14.80;62.00;;;;;;5067368;28;20055;-56
2024/01/24 09:15:08;;;;;;;16.67;5.65;;;14.80;61.90;;;;;;5067067;28;20065;-53
2024/01/24 09:17:35;;;;;;;21.13;6.22;;;14.80;61.90;;;;;;5063822;28;20047;-55
2024/01/24 09:20:03;;;;;;;16.85;5.05;;;14.80;62.00;;;;;;5060463;28;20041;-56
2024/01/24 09:22:30;;;;;;;15.02;5.07;;;14.80;61.90;;;;;;5067763;28;20047;-51
2024/01/24 09:25:01;;;;;;;17.45;5.13;;;14.80;62.10;;;;;;5065352;28;20044;-55
2024/01/24 09:27:35;;;;;;;20.55;5.80;;;14.80;61.80;;;;;;5049831;28;20036;-55
2024/01/24 09:30:03;;;;;;;19.70;5.07;;;14.80;61.40;;;;;;5066157;28;20043;-53
2024/01/24 09:32:29;;;;;;;23.10;6.90;;;14.80;61.40;;;;;;5066208;28;20090;-52
2024/01/24 09:34:56;;;;;;;16.00;5.22;;;14.80;61.60;;;;;;5064909;28;20044;-51
2024/01/24 09:37:23;;;;;;;16.55;5.25;;;14.80;61.60;;;;;;5067209;28;20094;-55
2024/01/24 09:39:52;;;;;;;19.73;6.80;;;14.80;61.60;;;;;;5066114;28;20064;-56
2024/01/24 09:42:27;;;;;;;20.80;4.72;;;14.80;61.80;;;;;;5067361;28;20040;-52
2024/01/24 09:44:57;;;;;;;19.35;5.28;;;14.90;61.50;;;;;;5067991;28;20502;-53
2024/01/24 09:47:25;;;;;;;21.42;6.85;;;14.90;61.60;;;;;;5068719;28;20074;-57
2024/01/24 09:49:52;;;;;;;24.17;6.72;;;14.90;61.70;;;;;;5063396;28;20098;-57
2024/01/24 09:52:23;;;;;;;20.33;5.90;;;14.90;61.80;;;;;;5053754;28;20079;-53
2024/01/24 09:54:57;;;;;;;23.42;5.40;;;14.90;61.90;;;;;;5056724;28;20047;-55
2024/01/24 09:57:26;;;;;;;21.40;6.05;;;14.90;61.80;;;;;;5054279;28;20045;-53
2024/01/24 09:59:53;;;;;;;19.90;5.55;;;14.90;61.60;;;;;;5063862;28;20585;-56
2024/01/24 10:02:20;;;;;;;17.52;5.95;;;14.90;61.80;;;;;;5063944;28;20051;-55
2024/01/24 10:04:50;;;;;;;20.38;6.18;;;14.90;61.70;;;;;;5066026;28;20048;-56
2024/01/24 10:07:18;;;;;;;23.13;5.78;;;14.90;61.80;;;;;;5062977;28;20063;-55
2024/01/24 10:09:49;;;;;;;19.02;6.30;;;14.90;62.40;;;;;;5066731;28;20036;-55
2024/01/24 10:12:16;;;;;;;21.88;6.15;;;14.90;61.70;;;;;;5065390;28;20040;-53
2024/01/24 10:14:43;;;;;;;27.40;6.80;;;14.90;61.50;;;;;;5069261;28;20471;-54
2024/01/24 10:17:11;;;;;;;16.60;5.82;;;14.90;61.70;;;;;;5064862;28;20040;-56
2024/01/24 10:19:38;;;;;;;17.67;4.85;;;14.90;61.40;;;;;;5067326;28;20041;-55
2024/01/24 10:22:05;;;;;;;15.27;4.95;;;14.90;61.50;;;;;;5059193;28;20094;-56
2024/01/24 10:24:36;;;;;;;23.67;7.68;;;14.90;61.40;;;;;;5069358;28;20041;-56
2024/01/24 10:27:04;;;;;;;20.73;7.20;;;14.90;61.40;;;;;;5068490;28;20517;-54
2024/01/24 10:29:31;;;;;;;19.38;5.00;;;14.90;61.40;;;;;;5069335;28;20485;-55
2024/01/24 10:31:58;;;;;;;18.73;6.00;;;15.00;61.20;;;;;;5063596;28;20049;-56
2024/01/24 10:34:29;;;;;;;24.67;7.18;;;15.00;61.20;;;;;;5067299;28;20086;-55
2024/01/24 10:36:56;;;;;;;16.88;6.13;;;15.00;61.20;;;;;;5068248;28;20037;-54
2024/01/24 10:39:27;;;;;;;18.35;5.30;;;15.00;61.40;;;;;;5066014;28;20502;-55
2024/01/24 10:41:57;;;;;;;21.20;5.68;;;15.00;61.40;;;;;;5064479;28;20079;-55
2024/01/24 10:44:31;;;;;;;13.75;5.05;;;15.00;61.30;;;;;;5066421;28;20072;-56
2024/01/24 10:46:58;;;;;;;22.45;5.50;;;15.00;60.90;;;;;;5068557;28;20093;-55
2024/01/24 10:49:29;;;;;;;20.17;6.53;;;15.00;60.80;;;;;;5065269;28;20424;-55
2024/01/24 10:51:57;;;;;;;19.77;5.47;;;15.00;60.70;;;;;;5054511;28;20045;-55
2024/01/24 10:54:26;;;;;;;20.80;6.40;;;15.00;60.80;;;;;;5052600;28;20043;-55
2024/01/24 10:56:54;;;;;;;22.80;5.70;;;15.00;60.80;;;;;;5057696;28;20106;-56
2024/01/24 10:59:23;;;;;;;23.17;5.82;;;15.00;60.50;;;;;;5062058;28;20049;-56
2024/01/24 11:01:50;;;;;;;17.85;5.28;;;15.00;60.60;;;;;;5064353;28;20765;-55
2024/01/24 11:04:21;;;;;;;20.48;5.72;;;15.00;61.00;;;;;;5065326;28;20052;-54
2024/01/24 11:06:58;;;;;;;20.63;5.23;;;15.00;60.50;;;;;;5067500;28;20044;-53
2024/01/24 11:09:53;;;;;;;18.65;5.88;;;15.10;60.10;;;;;;5062829;28;20068;-55
2024/01/24 11:12:21;;;;;;;18.80;6.95;;;15.10;60.10;;;;;;5063136;28;20047;-55
2024/01/24 11:14:48;;;;;;;18.13;6.15;;;15.10;60.70;;;;;;5059352;28;20048;-56
2024/01/24 11:17:16;;;;;;;16.10;5.97;;;15.10;60.70;;;;;;5057580;28;20044;-55
2024/01/24 11:19:43;;;;;;;20.27;4.75;;;15.10;60.70;;;;;;5064880;28;20033;-55
2024/01/24 11:22:11;;;;;;;22.08;7.20;;;15.10;60.40;;;;;;5064620;28;20044;-55
2024/01/24 11:24:52;;;;;;;20.70;4.95;;;15.10;60.50;;;;;;5061539;28;20416;-55
2024/01/24 11:27:35;;;;;;;18.30;5.50;;;15.10;60.30;;;;;;5065650;28;20410;-55
2024/01/24 11:30:38;;;;;;;21.48;6.07;;;15.10;59.70;;;;;;5062914;28;20075;-55
2024/01/24 11:33:04;;;;;;;21.92;6.95;;;15.20;60.00;;;;;;5063627;28;20071;-54
2024/01/24 11:35:35;;;;;;;21.30;5.95;;;15.20;60.20;;;;;;5060261;28;20115;-54
2024/01/24 11:38:26;;;;;;;21.83;5.13;;;15.20;60.30;;;;;;5061985;28;20100;-56
2024/01/24 11:40:57;;;;;;;20.58;5.05;;;15.20;59.70;;;;;;5040607;28;20044;-56
2024/01/24 11:43:32;;;;;;;17.08;5.00;;;15.20;59.80;;;;;;5062079;28;20050;-56
2024/01/24 11:46:05;;;;;;;18.08;6.35;;;15.30;59.60;;;;;;5061399;28;20064;-56
2024/01/24 11:48:35;;;;;;;19.33;5.53;;;15.30;59.60;;;;;;5062312;28;20105;-54
2024/01/24 11:51:04;;;;;;;17.17;4.53;;;15.30;59.80;;;;;;5057909;28;20079;-56
2024/01/24 11:53:31;;;;;;;18.20;5.10;;;15.30;59.60;;;;;;5069182;28;20040;-53
2024/01/24 11:55:59;;;;;;;18.25;5.28;;;15.30;59.60;;;;;;5066535;28;20071;-55
2024/01/24 11:58:26;;;;;;;25.02;5.78;;;15.30;59.10;;;;;;5072142;28;20102;-56
2024/01/24 12:00:54;;;;;;;18.60;5.55;;;15.40;59.40;;;;;;5063974;28;20050;-55
2024/01/24 12:03:23;;;;;;;16.90;4.82;;;15.40;59.50;;;;;;5069141;28;20072;-56
2024/01/24 12:05:50;;;;;;;18.75;4.63;;;15.40;59.00;;;;;;5064537;28;20045;-56
2024/01/24 12:08:18;;;;;;;23.63;6.18;;;15.50;59.40;;;;;;5071106;28;20036;-56
2024/01/24 12:10:44;;;;;;;17.48;5.60;;;15.50;58.90;;;;;;5051293;28;20040;-51
2024/01/24 12:13:12;;;;;;;12.95;4.22;;;15.50;58.30;;;;;;5070215;28;20044;-54
2024/01/24 12:15:41;;;;;;;20.48;5.47;;;15.50;58.40;;;;;;5065436;28;20056;-56
2024/01/24 12:18:10;;;;;;;22.27;5.88;;;15.50;58.20;;;;;;5069052;28;20050;-56
2024/01/24 12:20:37;;;;;;;19.88;5.18;;;15.40;58.10;;;;;;5066547;28;20083;-55
2024/01/24 12:23:07;;;;;;;19.65;5.43;;;15.40;58.00;;;;;;5064120;28;20512;-56
2024/01/24 12:25:35;;;;;;;20.55;5.03;;;15.40;58.20;;;;;;5066029;28;20053;-51
2024/01/24 12:28:02;;;;;;;18.13;4.93;;;15.40;58.30;;;;;;5064893;28;20560;-55
2024/01/24 12:30:32;;;;;;;24.48;6.25;;;15.30;58.10;;;;;;5068438;28;20044;-55
2024/01/24 12:33:00;;;;;;;18.50;4.78;;;15.30;57.90;;;;;;5067546;28;20053;-53
2024/01/24 12:35:31;;;;;;;22.83;6.80;;;15.30;58.10;;;;;;5069289;28;20053;-55
2024/01/24 12:38:00;;;;;;;18.93;4.80;;;15.30;58.00;;;;;;5066542;28;20412;-54
2024/01/24 12:40:28;;;;;;;18.10;5.38;;;15.20;58.20;;;;;;5064946;28;20044;-54
2024/01/24 12:42:56;;;;;;;21.27;5.13;;;15.20;58.70;;;;;;5061064;28;20052;-55
2024/01/24 12:45:25;;;;;;;19.80;4.78;;;15.20;58.10;;;;;;5069431;28;20045;-54
2024/01/24 12:47:53;;;;;;;16.48;5.35;;;15.20;58.10;;;;;;5070610;28;20059;-55
2024/01/24 12:50:21;;;;;;;18.20;5.75;;;15.20;58.20;;;;;;5062056;28;20118;-55
2024/01/24 12:52:49;;;;;;;15.95;4.60;;;15.20;57.90;;;;;;5058176;28;20049;-56